Thunderstorms From: 15-12-2017 06:00 Until: 16-12-2017 06:00 warning for: Thunderstorms Level: Yellow info button

Although rather usual in this region, locally or potentially dangerous phenomena are expected. (such as local winds, summer thunderstorms, rising streams or high waves) Be aware and pay attention to the latest weather updates, especially if you carry out activities exposed to weather or close to a stream or shoreline. 


Meteo18 Weather Cam more information Meteo18 Weather Cam


warning for Thunderstorms more information blitzortung!


Rain radar more information rain snow radar


Visit our other weather sites:

Template documentation
and downloads

And another site



Weather Underground History page Text

Daily Summary for September 21, 2017 Units:  Both    English   Metric
« Previous Day
Next Day »
Daily Weekly Monthly Yearly Custom
  High: Low: Average:
Temperature: 71.4 °F /  21.9 °C 44.1 °F /  6.7 °C 56.1 °F /  13.4 °C
Dew Point: 51.8 °F /  11.0 °C 42.8 °F /  6.0 °C 47.3 °F /  8.5 °C
Humidity: 96 % 39 % 76 %
Wind Speed: 6 mph /  9.7 km/h - 0.6 mph /  0.9 km/h
Wind Gust: 10 mph /  16.1 km/h - -
Wind:- - SSE
Pressure: 30.2 in /  1021.6 hPa 30.1 in /  1017.8 hPa -
Precipitation: 0.01 in /  0.3 mm    
Historical Graphs
 
 
Tabular Data for September 21, 2017
Time Temperature Dew Point Pressure Wind Wind Speed Wind Gust Humidity Rainfall Rate (Hourly)
00:02 47.5 °F /  8.6 °C 45.3 °F /  7.4 °C 30.2 in /  1021.6 hPa Calm     92 % 0 in /  0.0 mm
00:12 47.1 °F /  8.4 °C 45.1 °F /  7.3 °C 30.2 in /  1021.6 hPa Calm     93 % 0 in /  0.0 mm
00:17 47.1 °F /  8.4 °C 45.1 °F /  7.3 °C 30.2 in /  1021.6 hPa Calm     93 % 0 in /  0.0 mm
00:22 46.9 °F /  8.3 °C 45 °F /  7.2 °C 30.2 in /  1021.6 hPa Calm     93 % 0 in /  0.0 mm
00:27 46.9 °F /  8.3 °C 45 °F /  7.2 °C 30.2 in /  1021.6 hPa Calm     93 % 0 in /  0.0 mm
00:32 46.9 °F /  8.3 °C 45 °F /  7.2 °C 30.2 in /  1021.6 hPa Calm     93 % 0 in /  0.0 mm
00:37 47.1 °F /  8.4 °C 45.1 °F /  7.3 °C 30.2 in /  1021.6 hPa Calm     93 % 0 in /  0.0 mm
00:42 46.9 °F /  8.3 °C 44.8 °F /  7.1 °C 30.2 in /  1021.6 hPa Calm     92 % 0 in /  0.0 mm
00:52 46.8 °F /  8.2 °C 44.8 °F /  7.1 °C 30.2 in /  1021.6 hPa Calm     93 % 0 in /  0.0 mm
00:57 46.8 °F /  8.2 °C 44.8 °F /  7.1 °C 30.2 in /  1021.6 hPa Calm     93 % 0 in /  0.0 mm
01:02 46.8 °F /  8.2 °C 44.8 °F /  7.1 °C 30.2 in /  1021.6 hPa Calm     93 % 0 in /  0.0 mm
01:12 46.8 °F /  8.2 °C 44.8 °F /  7.1 °C 30.2 in /  1021.6 hPa Calm     93 % 0 in /  0.0 mm
01:17 46.8 °F /  8.2 °C 44.8 °F /  7.1 °C 30.2 in /  1021.2 hPa Calm     93 % 0 in /  0.0 mm
01:22 46.8 °F /  8.2 °C 44.8 °F /  7.1 °C 30.2 in /  1021.2 hPa Calm     93 % 0 in /  0.0 mm
01:32 46.6 °F /  8.1 °C 44.6 °F /  7.0 °C 30.2 in /  1021.2 hPa Calm     93 % 0 in /  0.0 mm
01:37 46.6 °F /  8.1 °C 44.6 °F /  7.0 °C 30.2 in /  1021.2 hPa Calm     93 % 0 in /  0.0 mm
01:42 46.2 °F /  7.9 °C 44.2 °F /  6.8 °C 30.2 in /  1021.2 hPa Calm     93 % 0 in /  0.0 mm
01:47 46.2 °F /  7.9 °C 44.2 °F /  6.8 °C 30.2 in /  1021.2 hPa Calm     93 % 0 in /  0.0 mm
01:52 46.2 °F /  7.9 °C 44.2 °F /  6.8 °C 30.2 in /  1021.2 hPa Calm     93 % 0 in /  0.0 mm
01:57 46.2 °F /  7.9 °C 44.2 °F /  6.8 °C 30.2 in /  1021.2 hPa Calm     93 % 0 in /  0.0 mm
02:02 46.2 °F /  7.9 °C 44.6 °F /  7.0 °C 30.2 in /  1021.2 hPa Calm     94 % 0 in /  0.0 mm
02:07 46.6 °F /  8.1 °C 45 °F /  7.2 °C 30.2 in /  1021.2 hPa Calm     94 % 0 in /  0.0 mm
02:12 46.4 °F /  8.0 °C 44.4 °F /  6.9 °C 30.2 in /  1021.2 hPa Calm     93 % 0 in /  0.0 mm
02:17 46 °F /  7.8 °C 44.1 °F /  6.7 °C 30.2 in /  1021.2 hPa Calm     93 % 0 in /  0.0 mm
02:22 45.9 °F /  7.7 °C 43.9 °F /  6.6 °C 30.2 in /  1021.2 hPa Calm     93 % 0 in /  0.0 mm
02:32 45.9 °F /  7.7 °C 44.2 °F /  6.8 °C 30.2 in /  1021.2 hPa Calm     94 % 0 in /  0.0 mm
02:42 45.5 °F /  7.5 °C 43.5 °F /  6.4 °C 30.2 in /  1021.2 hPa Calm     93 % 0 in /  0.0 mm
02:47 45.1 °F /  7.3 °C 43.5 °F /  6.4 °C 30.2 in /  1021.2 hPa Calm     94 % 0 in /  0.0 mm
02:52 45.1 °F /  7.3 °C 43.5 °F /  6.4 °C 30.2 in /  1021.2 hPa Calm     94 % 0 in /  0.0 mm
03:02 45.1 °F /  7.3 °C 43.5 °F /  6.4 °C 30.2 in /  1020.9 hPa Calm     94 % 0 in /  0.0 mm
03:12 45.5 °F /  7.5 °C 44.2 °F /  6.8 °C 30.2 in /  1020.9 hPa Calm     95 % 0 in /  0.0 mm
03:22 45.7 °F /  7.6 °C 44.4 °F /  6.9 °C 30.2 in /  1020.9 hPa Calm     95 % 0 in /  0.0 mm
03:32 45.7 °F /  7.6 °C 44.4 °F /  6.9 °C 30.2 in /  1020.9 hPa Calm     95 % 0 in /  0.0 mm
03:42 46 °F /  7.8 °C 44.6 °F /  7.0 °C 30.2 in /  1020.9 hPa Calm     95 % 0 in /  0.0 mm
03:52 45.1 °F /  7.3 °C 43.5 °F /  6.4 °C 30.2 in /  1020.9 hPa Calm     94 % 0 in /  0.0 mm
03:57 45 °F /  7.2 °C 43.7 °F /  6.5 °C 30.2 in /  1020.9 hPa Calm     95 % 0 in /  0.0 mm
04:02 45 °F /  7.2 °C 43.7 °F /  6.5 °C 30.2 in /  1020.9 hPa Calm     95 % 0 in /  0.0 mm
04:12 45.1 °F /  7.3 °C 43.9 °F /  6.6 °C 30.1 in /  1020.5 hPa Calm     95 % 0 in /  0.0 mm
04:17 45.3 °F /  7.4 °C 44.1 °F /  6.7 °C 30.1 in /  1020.5 hPa Calm     95 % 0 in /  0.0 mm
04:22 45.1 °F /  7.3 °C 43.9 °F /  6.6 °C 30.1 in /  1020.5 hPa Calm     95 % 0 in /  0.0 mm
04:27 45 °F /  7.2 °C 43.7 °F /  6.5 °C 30.1 in /  1020.5 hPa Calm     95 % 0 in /  0.0 mm
04:32 45 °F /  7.2 °C 43.7 °F /  6.5 °C 30.1 in /  1020.5 hPa Calm     95 % 0 in /  0.0 mm
04:42 44.6 °F /  7.0 °C 43.3 °F /  6.3 °C 30.1 in /  1020.5 hPa Calm     95 % 0 in /  0.0 mm
04:52 44.6 °F /  7.0 °C 43.3 °F /  6.3 °C 30.1 in /  1020.5 hPa Calm     95 % 0 in /  0.0 mm
05:02 45 °F /  7.2 °C 43.9 °F /  6.6 °C 30.1 in /  1020.2 hPa Calm     96 % 0 in /  0.0 mm
05:12 44.8 °F /  7.1 °C 43.5 °F /  6.4 °C 30.1 in /  1020.2 hPa Calm     95 % 0 in /  0.0 mm
05:22 44.6 °F /  7.0 °C 43.3 °F /  6.3 °C 30.1 in /  1020.2 hPa Calm     95 % 0 in /  0.0 mm
05:32 44.2 °F /  6.8 °C 43 °F /  6.1 °C 30.1 in /  1020.2 hPa Calm     95 % 0 in /  0.0 mm
05:42 44.2 °F /  6.8 °C 43 °F /  6.1 °C 30.1 in /  1020.2 hPa Calm     95 % 0 in /  0.0 mm
05:52 44.8 °F /  7.1 °C 43.7 °F /  6.5 °C 30.1 in /  1020.2 hPa Calm     96 % 0 in /  0.0 mm
05:57 45 °F /  7.2 °C 43.9 °F /  6.6 °C 30.1 in /  1019.9 hPa Calm     96 % 0 in /  0.0 mm
06:02 44.8 °F /  7.1 °C 43.5 °F /  6.4 °C 30.1 in /  1019.9 hPa Calm     95 % 0 in /  0.0 mm
06:12 44.8 °F /  7.1 °C 43.7 °F /  6.5 °C 30.1 in /  1019.9 hPa Calm     96 % 0.01 in /  0.3 mm
06:17 44.8 °F /  7.1 °C 43.7 °F /  6.5 °C 30.1 in /  1019.9 hPa Calm     96 % 0.01 in /  0.3 mm
06:22 44.8 °F /  7.1 °C 43.5 °F /  6.4 °C 30.1 in /  1019.9 hPa Calm     95 % 0.01 in /  0.3 mm
06:32 44.8 °F /  7.1 °C 43.5 °F /  6.4 °C 30.1 in /  1019.9 hPa Calm     95 % 0.01 in /  0.3 mm
06:42 44.8 °F /  7.1 °C 43.7 °F /  6.5 °C 30.1 in /  1019.9 hPa Calm     96 % 0.01 in /  0.3 mm
06:52 44.4 °F /  6.9 °C 43.2 °F /  6.2 °C 30.1 in /  1019.9 hPa Calm     95 % 0.01 in /  0.3 mm
06:57 44.2 °F /  6.8 °C 43 °F /  6.1 °C 30.1 in /  1019.9 hPa Calm     95 % 0.01 in /  0.3 mm
07:02 44.2 °F /  6.8 °C 43 °F /  6.1 °C 30.1 in /  1019.9 hPa Calm     95 % 0.01 in /  0.3 mm
07:12 44.2 °F /  6.8 °C 43 °F /  6.1 °C 30.1 in /  1019.9 hPa Calm     95 % 0 in /  0.0 mm
07:17 44.2 °F /  6.8 °C 43.2 °F /  6.2 °C 30.1 in /  1019.9 hPa Calm     96 % 0 in /  0.0 mm
07:22 44.2 °F /  6.8 °C 43 °F /  6.1 °C 30.1 in /  1019.9 hPa Calm     95 % 0 in /  0.0 mm
07:27 44.4 °F /  6.9 °C 43.3 °F /  6.3 °C 30.1 in /  1019.9 hPa Calm     96 % 0 in /  0.0 mm
07:32 44.2 °F /  6.8 °C 43 °F /  6.1 °C 30.1 in /  1019.9 hPa Calm     95 % 0 in /  0.0 mm
07:42 44.1 °F /  6.7 °C 42.8 °F /  6.0 °C 30.1 in /  1019.9 hPa Calm     95 % 0 in /  0.0 mm
07:52 44.1 °F /  6.7 °C 42.8 °F /  6.0 °C 30.1 in /  1019.9 hPa Calm     95 % 0 in /  0.0 mm
08:02 44.4 °F /  6.9 °C 43.2 °F /  6.2 °C 30.1 in /  1019.9 hPa Calm     95 % 0 in /  0.0 mm
08:12 44.4 °F /  6.9 °C 43.2 °F /  6.2 °C 30.1 in /  1019.9 hPa Calm     95 % 0 in /  0.0 mm
08:17 44.4 °F /  6.9 °C 43.2 °F /  6.2 °C 30.1 in /  1019.9 hPa Calm     95 % 0 in /  0.0 mm
08:22 45 °F /  7.2 °C 43.7 °F /  6.5 °C 30.1 in /  1019.9 hPa Calm     95 % 0 in /  0.0 mm
08:32 45.1 °F /  7.3 °C 43.9 °F /  6.6 °C 30.1 in /  1020.2 hPa Calm     95 % 0 in /  0.0 mm
08:42 46 °F /  7.8 °C 44.6 °F /  7.0 °C 30.1 in /  1020.2 hPa Calm     95 % 0 in /  0.0 mm
08:52 47.1 °F /  8.4 °C 45.7 °F /  7.6 °C 30.1 in /  1020.2 hPa Calm     95 % 0 in /  0.0 mm
08:57 47.7 °F /  8.7 °C 46.2 °F /  7.9 °C 30.1 in /  1020.2 hPa Calm     95 % 0 in /  0.0 mm
09:02 48 °F /  8.9 °C 46.6 °F /  8.1 °C 30.1 in /  1020.2 hPa Calm     95 % 0 in /  0.0 mm
09:12 49.1 °F /  9.5 °C 47.5 °F /  8.6 °C 30.1 in /  1020.2 hPa Calm     94 % 0 in /  0.0 mm
09:17 49.3 °F /  9.6 °C 47.3 °F /  8.5 °C 30.1 in /  1020.2 hPa Calm     93 % 0 in /  0.0 mm
09:22 49.6 °F /  9.8 °C 47.1 °F /  8.4 °C 30.1 in /  1020.2 hPa Calm     91 % 0 in /  0.0 mm
09:32 50.5 °F /  10.3 °C 47.5 °F /  8.6 °C 30.1 in /  1019.9 hPa Calm     89 % 0 in /  0.0 mm
09:42 51.4 °F /  10.8 °C 48 °F /  8.9 °C 30.1 in /  1019.9 hPa SE 2 mph /  3.2 km/h   88 % 0 in /  0.0 mm
09:47 51.8 °F /  11.0 °C 48 °F /  8.9 °C 30.1 in /  1019.9 hPa Calm   4 mph /  6.4 km/h 87 % 0 in /  0.0 mm
09:52 52.3 °F /  11.3 °C 48.6 °F /  9.2 °C 30.1 in /  1020.2 hPa SE 1 mph /  1.6 km/h 4 mph /  6.4 km/h 87 % 0 in /  0.0 mm
10:02 52.9 °F /  11.6 °C 48.6 °F /  9.2 °C 30.1 in /  1020.2 hPa Calm   4 mph /  6.4 km/h 85 % 0 in /  0.0 mm
10:12 53.8 °F /  12.1 °C 49.1 °F /  9.5 °C 30.1 in /  1020.2 hPa Calm   5 mph /  8.0 km/h 84 % 0 in /  0.0 mm
10:17 54.1 °F /  12.3 °C 48.7 °F /  9.3 °C 30.1 in /  1020.2 hPa Calm   4 mph /  6.4 km/h 82 % 0 in /  0.0 mm
10:22 54.1 °F /  12.3 °C 48.4 °F /  9.1 °C 30.1 in /  1020.2 hPa Calm   4 mph /  6.4 km/h 81 % 0 in /  0.0 mm
10:32 54.9 °F /  12.7 °C 49.8 °F /  9.9 °C 30.1 in /  1020.2 hPa ESE 1 mph /  1.6 km/h 6 mph /  9.7 km/h 83 % 0 in /  0.0 mm
10:42 56.3 °F /  13.5 °C 50.5 °F /  10.3 °C 30.1 in /  1019.9 hPa ENE 1 mph /  1.6 km/h 4 mph /  6.4 km/h 81 % 0 in /  0.0 mm
10:52 56.8 °F /  13.8 °C 50.7 °F /  10.4 °C 30.1 in /  1019.9 hPa East 2 mph /  3.2 km/h 5 mph /  8.0 km/h 80 % 0 in /  0.0 mm
11:02 57.6 °F /  14.2 °C 50.4 °F /  10.2 °C 30.1 in /  1019.9 hPa SW 1 mph /  1.6 km/h 4 mph /  6.4 km/h 77 % 0 in /  0.0 mm
11:12 58.3 °F /  14.6 °C 51.1 °F /  10.6 °C 30.1 in /  1019.9 hPa ESE 1 mph /  1.6 km/h 7 mph /  11.3 km/h 77 % 0 in /  0.0 mm
11:22 59.2 °F /  15.1 °C 50.9 °F /  10.5 °C 30.1 in /  1019.9 hPa East 2 mph /  3.2 km/h 6 mph /  9.7 km/h 74 % 0 in /  0.0 mm
11:32 59.7 °F /  15.4 °C 51.1 °F /  10.6 °C 30.1 in /  1019.9 hPa South 1 mph /  1.6 km/h 6 mph /  9.7 km/h 73 % 0 in /  0.0 mm
11:37 60.1 °F /  15.6 °C 51.4 °F /  10.8 °C 30.1 in /  1019.9 hPa ESE 1 mph /  1.6 km/h 5 mph /  8.0 km/h 73 % 0 in /  0.0 mm
11:42 60.4 °F /  15.8 °C 51.8 °F /  11.0 °C 30.1 in /  1019.9 hPa ESE 1 mph /  1.6 km/h 5 mph /  8.0 km/h 73 % 0 in /  0.0 mm
11:52 61.5 °F /  16.4 °C 51.3 °F /  10.7 °C 30.1 in /  1019.9 hPa East 2 mph /  3.2 km/h 6 mph /  9.7 km/h 69 % 0 in /  0.0 mm
12:02 61.9 °F /  16.6 °C 50.7 °F /  10.4 °C 30.1 in /  1019.9 hPa SE 3 mph /  4.8 km/h 6 mph /  9.7 km/h 67 % 0 in /  0.0 mm
12:12 63 °F /  17.2 °C 50.5 °F /  10.3 °C 30.1 in /  1019.9 hPa SW 2 mph /  3.2 km/h 8 mph /  12.9 km/h 64 % 0 in /  0.0 mm
12:17 63.5 °F /  17.5 °C 51.1 °F /  10.6 °C 30.1 in /  1019.5 hPa SE 4 mph /  6.4 km/h 7 mph /  11.3 km/h 64 % 0 in /  0.0 mm
12:22 63.9 °F /  17.7 °C 50.5 °F /  10.3 °C 30.1 in /  1019.5 hPa East 1 mph /  1.6 km/h 7 mph /  11.3 km/h 62 % 0 in /  0.0 mm
12:32 64.2 °F /  17.9 °C 50 °F /  10.0 °C 30.1 in /  1019.5 hPa Calm   6 mph /  9.7 km/h 60 % 0 in /  0.0 mm
12:42 64.8 °F /  18.2 °C 49.1 °F /  9.5 °C 30.1 in /  1019.5 hPa ESE 3 mph /  4.8 km/h 7 mph /  11.3 km/h 57 % 0 in /  0.0 mm
12:52 64.8 °F /  18.2 °C 49.1 °F /  9.5 °C 30.1 in /  1019.5 hPa ESE 2 mph /  3.2 km/h 8 mph /  12.9 km/h 57 % 0 in /  0.0 mm
12:57 64.9 °F /  18.3 °C 48.9 °F /  9.4 °C 30.1 in /  1019.5 hPa NE 2 mph /  3.2 km/h 9 mph /  14.5 km/h 56 % 0 in /  0.0 mm
13:02 64.8 °F /  18.2 °C 48.2 °F /  9.0 °C 30.1 in /  1019.5 hPa SE 3 mph /  4.8 km/h 9 mph /  14.5 km/h 55 % 0 in /  0.0 mm
13:12 64.6 °F /  18.1 °C 48.9 °F /  9.4 °C 30.1 in /  1019.5 hPa SE 1 mph /  1.6 km/h 9 mph /  14.5 km/h 57 % 0 in /  0.0 mm
13:17 65.3 °F /  18.5 °C 50.2 °F /  10.1 °C 30.1 in /  1019.2 hPa ENE 2 mph /  3.2 km/h 8 mph /  12.9 km/h 58 % 0 in /  0.0 mm
13:22 65.5 °F /  18.6 °C 49.3 °F /  9.6 °C 30.1 in /  1019.2 hPa Calm   8 mph /  12.9 km/h 56 % 0 in /  0.0 mm
13:32 66.2 °F /  19.0 °C 50 °F /  10.0 °C 30.1 in /  1019.2 hPa South 1 mph /  1.6 km/h 8 mph /  12.9 km/h 56 % 0 in /  0.0 mm
13:42 66.6 °F /  19.2 °C 49.5 °F /  9.7 °C 30.1 in /  1019.2 hPa Calm   7 mph /  11.3 km/h 54 % 0 in /  0.0 mm
13:52 66.7 °F /  19.3 °C 48.6 °F /  9.2 °C 30.1 in /  1019.2 hPa SSW 4 mph /  6.4 km/h 7 mph /  11.3 km/h 52 % 0 in /  0.0 mm
13:57 66.6 °F /  19.2 °C 49.5 °F /  9.7 °C 30.1 in /  1019.2 hPa SE 5 mph /  8.0 km/h 10 mph /  16.1 km/h 54 % 0 in /  0.0 mm
14:02 65.7 °F /  18.7 °C 48.6 °F /  9.2 °C 30.1 in /  1018.8 hPa ESE 1 mph /  1.6 km/h 10 mph /  16.1 km/h 54 % 0 in /  0.0 mm
14:12 65.7 °F /  18.7 °C 48 °F /  8.9 °C 30.1 in /  1018.8 hPa ESE 4 mph /  6.4 km/h 8 mph /  12.9 km/h 53 % 0 in /  0.0 mm
14:17 66 °F /  18.9 °C 50.4 °F /  10.2 °C 30.1 in /  1018.8 hPa SE 3 mph /  4.8 km/h 7 mph /  11.3 km/h 57 % 0 in /  0.0 mm
14:22 66.9 °F /  19.4 °C 50.2 °F /  10.1 °C 30.1 in /  1018.8 hPa SSW 1 mph /  1.6 km/h 7 mph /  11.3 km/h 55 % 0 in /  0.0 mm
14:32 67.3 °F /  19.6 °C 49.1 °F /  9.5 °C 30.1 in /  1018.8 hPa WSW 3 mph /  4.8 km/h 6 mph /  9.7 km/h 52 % 0 in /  0.0 mm
14:37 67.3 °F /  19.6 °C 49.6 °F /  9.8 °C 30.1 in /  1018.8 hPa East 1 mph /  1.6 km/h 7 mph /  11.3 km/h 53 % 0 in /  0.0 mm
14:42 67.5 °F /  19.7 °C 49.8 °F /  9.9 °C 30.1 in /  1018.8 hPa SSE 3 mph /  4.8 km/h 7 mph /  11.3 km/h 53 % 0 in /  0.0 mm
14:52 67.6 °F /  19.8 °C 48.9 °F /  9.4 °C 30.1 in /  1018.5 hPa Calm   7 mph /  11.3 km/h 51 % 0 in /  0.0 mm
14:57 68.2 °F /  20.1 °C 50.4 °F /  10.2 °C 30.1 in /  1018.5 hPa ESE 1 mph /  1.6 km/h 8 mph /  12.9 km/h 53 % 0 in /  0.0 mm
15:02 68.4 °F /  20.2 °C 50.5 °F /  10.3 °C 30.1 in /  1018.5 hPa Calm   8 mph /  12.9 km/h 53 % 0 in /  0.0 mm
15:12 68.4 °F /  20.2 °C 50 °F /  10.0 °C 30.1 in /  1018.5 hPa SE 4 mph /  6.4 km/h 6 mph /  9.7 km/h 52 % 0 in /  0.0 mm
15:17 68.4 °F /  20.2 °C 50 °F /  10.0 °C 30.1 in /  1018.5 hPa SE 2 mph /  3.2 km/h 6 mph /  9.7 km/h 52 % 0 in /  0.0 mm
15:22 68.9 °F /  20.5 °C 50.5 °F /  10.3 °C 30.1 in /  1018.5 hPa SSW 6 mph /  9.7 km/h 6 mph /  9.7 km/h 52 % 0 in /  0.0 mm
15:27 68.7 °F /  20.4 °C 47.7 °F /  8.7 °C 30.1 in /  1018.5 hPa SSE 2 mph /  3.2 km/h 8 mph /  12.9 km/h 47 % 0 in /  0.0 mm
15:32 68.5 °F /  20.3 °C 47.5 °F /  8.6 °C 30.1 in /  1018.5 hPa SSW 2 mph /  3.2 km/h 8 mph /  12.9 km/h 47 % 0 in /  0.0 mm
15:42 69.1 °F /  20.6 °C 48 °F /  8.9 °C 30.1 in /  1018.5 hPa WSW 2 mph /  3.2 km/h 6 mph /  9.7 km/h 47 % 0 in /  0.0 mm
15:52 69.4 °F /  20.8 °C 47.8 °F /  8.8 °C 30.1 in /  1018.5 hPa Calm   6 mph /  9.7 km/h 46 % 0 in /  0.0 mm
16:02 69.3 °F /  20.7 °C 46.9 °F /  8.3 °C 30.1 in /  1018.2 hPa South 1 mph /  1.6 km/h 5 mph /  8.0 km/h 45 % 0 in /  0.0 mm
16:12 70.2 °F /  21.2 °C 48.4 °F /  9.1 °C 30.1 in /  1018.2 hPa ESE 1 mph /  1.6 km/h 7 mph /  11.3 km/h 46 % 0 in /  0.0 mm
16:17 69.8 °F /  21.0 °C 48 °F /  8.9 °C 30.1 in /  1018.2 hPa Calm   5 mph /  8.0 km/h 46 % 0 in /  0.0 mm
16:22 69.4 °F /  20.8 °C 48.9 °F /  9.4 °C 30.1 in /  1018.2 hPa Calm   5 mph /  8.0 km/h 48 % 0 in /  0.0 mm
16:32 69.4 °F /  20.8 °C 49.5 °F /  9.7 °C 30.1 in /  1018.2 hPa SSE 2 mph /  3.2 km/h 5 mph /  8.0 km/h 49 % 0 in /  0.0 mm
16:42 69.8 °F /  21.0 °C 48.7 °F /  9.3 °C 30.1 in /  1018.2 hPa SW 3 mph /  4.8 km/h 6 mph /  9.7 km/h 47 % 0 in /  0.0 mm
16:47 70 °F /  21.1 °C 49.5 °F /  9.7 °C 30.1 in /  1017.8 hPa Calm   5 mph /  8.0 km/h 48 % 0 in /  0.0 mm
16:52 70.3 °F /  21.3 °C 49.6 °F /  9.8 °C 30.1 in /  1017.8 hPa SW 3 mph /  4.8 km/h 5 mph /  8.0 km/h 48 % 0 in /  0.0 mm
16:57 70.3 °F /  21.3 °C 49.1 °F /  9.5 °C 30.1 in /  1017.8 hPa Calm   7 mph /  11.3 km/h 47 % 0 in /  0.0 mm
17:02 70.5 °F /  21.4 °C 48.7 °F /  9.3 °C 30.1 in /  1017.8 hPa South 2 mph /  3.2 km/h 7 mph /  11.3 km/h 46 % 0 in /  0.0 mm
17:12 70.5 °F /  21.4 °C 48.7 °F /  9.3 °C 30.1 in /  1017.8 hPa Calm   6 mph /  9.7 km/h 46 % 0 in /  0.0 mm
17:17 70.5 °F /  21.4 °C 48.2 °F /  9.0 °C 30.1 in /  1017.8 hPa South 2 mph /  3.2 km/h 3 mph /  4.8 km/h 45 % 0 in /  0.0 mm
17:22 71.1 °F /  21.7 °C 48 °F /  8.9 °C 30.1 in /  1017.8 hPa SE 1 mph /  1.6 km/h 3 mph /  4.8 km/h 44 % 0 in /  0.0 mm
17:32 71.1 °F /  21.7 °C 48 °F /  8.9 °C 30.1 in /  1017.8 hPa Calm   4 mph /  6.4 km/h 44 % 0 in /  0.0 mm
17:42 71.4 °F /  21.9 °C 47.8 °F /  8.8 °C 30.1 in /  1017.8 hPa South 2 mph /  3.2 km/h 3 mph /  4.8 km/h 43 % 0 in /  0.0 mm
17:52 71.1 °F /  21.7 °C 47.5 °F /  8.6 °C 30.1 in /  1017.8 hPa ESE 1 mph /  1.6 km/h 7 mph /  11.3 km/h 43 % 0 in /  0.0 mm
17:57 71.1 °F /  21.7 °C 49.3 °F /  9.6 °C 30.1 in /  1017.8 hPa Calm   7 mph /  11.3 km/h 46 % 0 in /  0.0 mm
18:02 71.4 °F /  21.9 °C 49.6 °F /  9.8 °C 30.1 in /  1017.8 hPa Calm   7 mph /  11.3 km/h 46 % 0 in /  0.0 mm
18:07 71.2 °F /  21.8 °C 46.4 °F /  8.0 °C 30.1 in /  1018.2 hPa SSW 1 mph /  1.6 km/h 4 mph /  6.4 km/h 41 % 0 in /  0.0 mm
18:12 71.4 °F /  21.9 °C 48.4 °F /  9.1 °C 30.1 in /  1018.2 hPa Calm   4 mph /  6.4 km/h 44 % 0 in /  0.0 mm
18:17 71.1 °F /  21.7 °C 44.8 °F /  7.1 °C 30.1 in /  1018.2 hPa SSW 3 mph /  4.8 km/h 3 mph /  4.8 km/h 39 % 0 in /  0.0 mm
18:22 70.5 °F /  21.4 °C 45.7 °F /  7.6 °C 30.1 in /  1018.2 hPa SW 1 mph /  1.6 km/h 4 mph /  6.4 km/h 41 % 0 in /  0.0 mm
18:32 70.2 °F /  21.2 °C 45.3 °F /  7.4 °C 30.1 in /  1018.2 hPa WSW 3 mph /  4.8 km/h 6 mph /  9.7 km/h 41 % 0 in /  0.0 mm
18:37 70 °F /  21.1 °C 45.9 °F /  7.7 °C 30.1 in /  1018.2 hPa SW 3 mph /  4.8 km/h 6 mph /  9.7 km/h 42 % 0 in /  0.0 mm
18:42 70 °F /  21.1 °C 45.9 °F /  7.7 °C 30.1 in /  1018.2 hPa SW 1 mph /  1.6 km/h 5 mph /  8.0 km/h 42 % 0 in /  0.0 mm
18:47 70 °F /  21.1 °C 46.4 °F /  8.0 °C 30.1 in /  1018.5 hPa Calm   4 mph /  6.4 km/h 43 % 0 in /  0.0 mm
18:52 70 °F /  21.1 °C 47.1 °F /  8.4 °C 30.1 in /  1018.2 hPa Calm   4 mph /  6.4 km/h 44 % 0 in /  0.0 mm
18:57 70.2 °F /  21.2 °C 47.8 °F /  8.8 °C 30.1 in /  1018.2 hPa West 1 mph /  1.6 km/h 3 mph /  4.8 km/h 45 % 0 in /  0.0 mm
19:02 70.2 °F /  21.2 °C 47.8 °F /  8.8 °C 30.1 in /  1018.5 hPa Calm   3 mph /  4.8 km/h 45 % 0 in /  0.0 mm
19:12 69.4 °F /  20.8 °C 50 °F /  10.0 °C 30.1 in /  1018.5 hPa Calm   2 mph /  3.2 km/h 50 % 0 in /  0.0 mm
19:17 68.2 °F /  20.1 °C 51.4 °F /  10.8 °C 30.1 in /  1018.5 hPa Calm   1 mph /  1.6 km/h 55 % 0 in /  0.0 mm
19:22 66.9 °F /  19.4 °C 50.7 °F /  10.4 °C 30.1 in /  1018.5 hPa Calm   1 mph /  1.6 km/h 56 % 0 in /  0.0 mm
19:32 64.9 °F /  18.3 °C 51.1 °F /  10.6 °C 30.1 in /  1018.5 hPa Calm   1 mph /  1.6 km/h 61 % 0 in /  0.0 mm
19:42 63.9 °F /  17.7 °C 51.1 °F /  10.6 °C 30.1 in /  1018.5 hPa Calm     63 % 0 in /  0.0 mm
19:52 63.3 °F /  17.4 °C 50 °F /  10.0 °C 30.1 in /  1018.8 hPa Calm     62 % 0 in /  0.0 mm
19:57 63 °F /  17.2 °C 49.8 °F /  9.9 °C 30.1 in /  1018.8 hPa Calm     62 % 0 in /  0.0 mm
20:02 62.4 °F /  16.9 °C 49.6 °F /  9.8 °C 30.1 in /  1018.8 hPa Calm     63 % 0 in /  0.0 mm
20:12 61.3 °F /  16.3 °C 49.5 °F /  9.7 °C 30.1 in /  1018.8 hPa Calm     65 % 0 in /  0.0 mm
20:17 61.2 °F /  16.2 °C 50.5 °F /  10.3 °C 30.1 in /  1018.8 hPa Calm     68 % 0 in /  0.0 mm
20:22 60.8 °F /  16.0 °C 49.5 °F /  9.7 °C 30.1 in /  1018.8 hPa Calm     66 % 0 in /  0.0 mm
20:32 60.4 °F /  15.8 °C 51.1 °F /  10.6 °C 30.1 in /  1019.2 hPa Calm     71 % 0 in /  0.0 mm
20:42 59.5 °F /  15.3 °C 51.3 °F /  10.7 °C 30.1 in /  1019.2 hPa Calm     74 % 0 in /  0.0 mm
20:47 59.4 °F /  15.2 °C 51.4 °F /  10.8 °C 30.1 in /  1019.2 hPa Calm     75 % 0 in /  0.0 mm
20:57 59.2 °F /  15.1 °C 51.6 °F /  10.9 °C 30.1 in /  1019.2 hPa Calm     76 % 0 in /  0.0 mm
21:07 57.9 °F /  14.4 °C 51.1 °F /  10.6 °C 30.1 in /  1019.5 hPa Calm     78 % 0 in /  0.0 mm
21:12 57.2 °F /  14.0 °C 51.4 °F /  10.8 °C 30.1 in /  1019.5 hPa WNW 2 mph /  3.2 km/h   81 % 0 in /  0.0 mm
21:17 56.7 °F /  13.7 °C 51.3 °F /  10.7 °C 30.1 in /  1019.5 hPa Calm   2 mph /  3.2 km/h 82 % 0 in /  0.0 mm
21:27 56.3 °F /  13.5 °C 51.3 °F /  10.7 °C 30.1 in /  1019.5 hPa Calm   2 mph /  3.2 km/h 83 % 0 in /  0.0 mm
21:32 56.1 °F /  13.4 °C 51.1 °F /  10.6 °C 30.1 in /  1019.5 hPa WNW 1 mph /  1.6 km/h 2 mph /  3.2 km/h 83 % 0 in /  0.0 mm
21:37 55.8 °F /  13.2 °C 50.7 °F /  10.4 °C 30.1 in /  1019.5 hPa Calm   1 mph /  1.6 km/h 83 % 0 in /  0.0 mm
21:42 55.8 °F /  13.2 °C 50.7 °F /  10.4 °C 30.1 in /  1019.5 hPa Calm   1 mph /  1.6 km/h 83 % 0 in /  0.0 mm
21:47 55.6 °F /  13.1 °C 50.5 °F /  10.3 °C 30.1 in /  1019.5 hPa Calm   1 mph /  1.6 km/h 83 % 0 in /  0.0 mm
21:57 55 °F /  12.8 °C 50.4 °F /  10.2 °C 30.1 in /  1019.9 hPa Calm   1 mph /  1.6 km/h 84 % 0 in /  0.0 mm
22:02 54.9 °F /  12.7 °C 50.4 °F /  10.2 °C 30.1 in /  1019.5 hPa Calm   1 mph /  1.6 km/h 85 % 0 in /  0.0 mm
22:12 54.9 °F /  12.7 °C 50.4 °F /  10.2 °C 30.1 in /  1019.5 hPa Calm   1 mph /  1.6 km/h 85 % 0 in /  0.0 mm
22:22 54.7 °F /  12.6 °C 50.2 °F /  10.1 °C 30.1 in /  1019.9 hPa Calm   1 mph /  1.6 km/h 85 % 0 in /  0.0 mm
22:32 54.3 °F /  12.4 °C 49.8 °F /  9.9 °C 30.1 in /  1019.9 hPa Calm   1 mph /  1.6 km/h 85 % 0 in /  0.0 mm
22:37 54 °F /  12.2 °C 49.8 °F /  9.9 °C 30.1 in /  1019.9 hPa Calm   1 mph /  1.6 km/h 86 % 0 in /  0.0 mm
22:47 53.8 °F /  12.1 °C 50.4 °F /  10.2 °C 30.1 in /  1019.9 hPa Calm   1 mph /  1.6 km/h 88 % 0 in /  0.0 mm
22:52 54 °F /  12.2 °C 50.2 °F /  10.1 °C 30.1 in /  1019.9 hPa Calm   1 mph /  1.6 km/h 87 % 0 in /  0.0 mm
22:57 53.8 °F /  12.1 °C 50 °F /  10.0 °C 30.1 in /  1019.9 hPa Calm   1 mph /  1.6 km/h 87 % 0 in /  0.0 mm
23:02 53.4 °F /  11.9 °C 49.6 °F /  9.8 °C 30.1 in /  1019.9 hPa Calm   1 mph /  1.6 km/h 87 % 0 in /  0.0 mm
23:12 52.7 °F /  11.5 °C 49.3 °F /  9.6 °C 30.1 in /  1019.9 hPa Calm     88 % 0 in /  0.0 mm
23:17 52.5 °F /  11.4 °C 49.5 °F /  9.7 °C 30.1 in /  1019.9 hPa Calm     89 % 0 in /  0.0 mm
23:22 52.5 °F /  11.4 °C 49.5 °F /  9.7 °C 30.1 in /  1019.9 hPa Calm     89 % 0 in /  0.0 mm
23:32 52.5 °F /  11.4 °C 49.5 °F /  9.7 °C 30.1 in /  1019.9 hPa Calm     89 % 0 in /  0.0 mm
23:42 52.2 °F /  11.2 °C 49.1 °F /  9.5 °C 30.1 in /  1019.9 hPa Calm     89 % 0 in /  0.0 mm
23:47 52.2 °F /  11.2 °C 49.3 °F /  9.6 °C 30.1 in /  1019.9 hPa Calm     90 % 0 in /  0.0 mm
23:52 52.2 °F /  11.2 °C 49.3 °F /  9.6 °C 30.1 in /  1019.9 hPa Calm     90 % 0 in /  0.0 mm
Meteo18
Compliments of Weather Underground - 4 mb

Script developed by  Jim McMurry - jmcmurry@mwt.net Adapted for the template by  Wim van der Kuil - Leuven-Template.eu

You find our weather info also at:

European Weather Network

Weather Underground

Equipment we use:

Weather-station
Davis Vue

Weather-program
Meteohub

Weather-server
Raspberry PI 2 B+

Provider
1 and 1

Davis Vue

Meteohub

Raspberry PI 2 B+

1 and 1